sensor_id;sensor_type;location;lat;lon;timestamp;pressure;altitude;pressure_sealevel;temperature;humidity
53932;BME280;39844;52.496;13.482;2022-09-09T00:04:37;100806.38;;;15.55;100.00
53932;BME280;39844;52.496;13.482;2022-09-09T00:07:22;100809.97;;;15.51;100.00
53932;BME280;39844;52.496;13.482;2022-09-09T00:09:57;100807.38;;;15.50;100.00
53932;BME280;39844;52.496;13.482;2022-09-09T00:12:33;100812.72;;;15.48;100.00
53932;BME280;39844;52.496;13.482;2022-09-09T00:15:03;100813.56;;;15.49;100.00
53932;BME280;39844;52.496;13.482;2022-09-09T00:17:35;100810.06;;;15.48;100.00
53932;BME280;39844;52.496;13.482;2022-09-09T00:20:14;100810.06;;;15.48;100.00
53932;BME280;39844;52.496;13.482;2022-09-09T00:22:47;100806.53;;;15.48;100.00
53932;BME280;39844;52.496;13.482;2022-09-09T00:25:20;100806.53;;;15.48;100.00
53932;BME280;39844;52.496;13.482;2022-09-09T00:27:50;100802.13;;;15.47;100.00
53932;BME280;39844;52.496;13.482;2022-09-09T00:32:49;100799.59;;;15.41;100.00
53932;BME280;39844;52.496;13.482;2022-09-09T00:35:23;100801.41;;;15.39;100.00
53932;BME280;39844;52.496;13.482;2022-09-09T00:37:53;100795.28;;;15.37;100.00
53932;BME280;39844;52.496;13.482;2022-09-09T00:40:38;100797.06;;;15.36;100.00
53932;BME280;39844;52.496;13.482;2022-09-09T00:46:25;100798.06;;;15.31;100.00
53932;BME280;39844;52.496;13.482;2022-09-09T00:49:19;100799.91;;;15.27;100.00
53932;BME280;39844;52.496;13.482;2022-09-09T00:57:51;100804.38;;;15.25;100.00
53932;BME280;39844;52.496;13.482;2022-09-09T01:11:49;100808.25;;;15.09;100.00
53932;BME280;39844;52.496;13.482;2022-09-09T01:22:26;100813.75;;;14.98;100.00
53932;BME280;39844;52.496;13.482;2022-09-09T01:25:22;100814.63;;;14.99;100.00
53932;BME280;39844;52.496;13.482;2022-09-09T01:27:56;100815.50;;;14.99;100.00
53932;BME280;39844;52.496;13.482;2022-09-09T01:30:22;100816.44;;;14.97;100.00
53932;BME280;39844;52.496;13.482;2022-09-09T01:32:54;100813.88;;;14.92;100.00
53932;BME280;39844;52.496;13.482;2022-09-09T01:38:14;100816.59;;;14.88;100.00
53932;BME280;39844;52.496;13.482;2022-09-09T01:40:40;100818.38;;;14.87;100.00
53932;BME280;39844;52.496;13.482;2022-09-09T01:43:06;100813.13;;;14.86;100.00
53932;BME280;39844;52.496;13.482;2022-09-09T01:45:33;100811.38;;;14.85;100.00
53932;BME280;39844;52.496;13.482;2022-09-09T01:47:59;100815.81;;;14.84;100.00
53932;BME280;39844;52.496;13.482;2022-09-09T01:50:25;100809.66;;;14.82;100.00
53932;BME280;39844;52.496;13.482;2022-09-09T01:52:54;100804.41;;;14.81;100.00
53932;BME280;39844;52.496;13.482;2022-09-09T01:55:29;100804.41;;;14.81;100.00
53932;BME280;39844;52.496;13.482;2022-09-09T02:00:23;100810.63;;;14.78;100.00
53932;BME280;39844;52.496;13.482;2022-09-09T02:03:06;100812.44;;;14.76;100.00
53932;BME280;39844;52.496;13.482;2022-09-09T02:05:37;100815.09;;;14.75;100.00
53932;BME280;39844;52.496;13.482;2022-09-09T02:08:19;100819.59;;;14.71;100.00
53932;BME280;39844;52.496;13.482;2022-09-09T02:10:58;100831.03;;;14.72;100.00
53932;BME280;39844;52.496;13.482;2022-09-09T02:13:24;100816.03;;;14.72;100.00
53932;BME280;39844;52.496;13.482;2022-09-09T02:18:35;100830.22;;;14.68;100.00
53932;BME280;39844;52.496;13.482;2022-09-09T02:21:02;100827.63;;;14.65;100.00
53932;BME280;39844;52.496;13.482;2022-09-09T02:23:28;100824.97;;;14.65;100.00
53932;BME280;39844;52.496;13.482;2022-09-09T02:25:55;100829.38;;;14.65;100.00
53932;BME280;39844;52.496;13.482;2022-09-09T02:28:22;100821.50;;;14.63;100.00
53932;BME280;39844;52.496;13.482;2022-09-09T02:30:50;100824.97;;;14.65;100.00
53932;BME280;39844;52.496;13.482;2022-09-09T02:33:22;100821.50;;;14.63;100.00
53932;BME280;39844;52.496;13.482;2022-09-09T02:35:51;100823.25;;;14.64;100.00
53932;BME280;39844;52.496;13.482;2022-09-09T02:38:19;100824.19;;;14.60;100.00
53932;BME280;39844;52.496;13.482;2022-09-09T02:40:45;100827.81;;;14.56;100.00
53932;BME280;39844;52.496;13.482;2022-09-09T02:43:11;100834.03;;;14.52;100.00
53932;BME280;39844;52.496;13.482;2022-09-09T02:45:42;100822.63;;;14.50;100.00
53932;BME280;39844;52.496;13.482;2022-09-09T02:48:29;100824.38;;;14.51;100.00
53932;BME280;39844;52.496;13.482;2022-09-09T02:51:19;100821.69;;;14.52;100.00
53932;BME280;39844;52.496;13.482;2022-09-09T02:54:14;100817.34;;;14.51;100.00
53932;BME280;39844;52.496;13.482;2022-09-09T02:56:46;100811.22;;;14.48;100.00
53932;BME280;39844;52.496;13.482;2022-09-09T02:59:15;100820.03;;;14.47;100.00
53932;BME280;39844;52.496;13.482;2022-09-09T03:01:40;100817.47;;;14.44;100.00
53932;BME280;39844;52.496;13.482;2022-09-09T03:04:06;100813.06;;;14.43;100.00
53932;BME280;39844;52.496;13.482;2022-09-09T03:06:31;100821.94;;;14.40;100.00
53932;BME280;39844;52.496;13.482;2022-09-09T03:08:56;100828.97;;;14.40;100.00
53932;BME280;39844;52.496;13.482;2022-09-09T03:11:26;100822.81;;;14.39;100.00
53932;BME280;39844;52.496;13.482;2022-09-09T03:13:52;100832.53;;;14.39;100.00
53932;BME280;39844;52.496;13.482;2022-09-09T03:16:18;100831.66;;;14.37;100.00
53932;BME280;39844;52.496;13.482;2022-09-09T03:18:43;100840.50;;;14.36;100.00
53932;BME280;39844;52.496;13.482;2022-09-09T03:21:10;100838.78;;;14.33;100.00
53932;BME280;39844;52.496;13.482;2022-09-09T03:23:36;100841.38;;;14.35;100.00
53932;BME280;39844;52.496;13.482;2022-09-09T03:26:01;100848.47;;;14.33;100.00
53932;BME280;39844;52.496;13.482;2022-09-09T03:28:27;100850.28;;;14.31;100.00
53932;BME280;39844;52.496;13.482;2022-09-09T03:31:04;100844.13;;;14.27;100.00
53932;BME280;39844;52.496;13.482;2022-09-09T03:33:29;100842.38;;;14.26;100.00
53932;BME280;39844;52.496;13.482;2022-09-09T03:35:56;100842.41;;;14.25;100.00
53932;BME280;39844;52.496;13.482;2022-09-09T03:38:25;100842.41;;;14.25;100.00
53932;BME280;39844;52.496;13.482;2022-09-09T03:40:52;100840.66;;;14.25;100.00
53932;BME280;39844;52.496;13.482;2022-09-09T03:43:21;100841.53;;;14.26;100.00
53932;BME280;39844;52.496;13.482;2022-09-09T03:45:46;100836.25;;;14.26;100.00
53932;BME280;39844;52.496;13.482;2022-09-09T03:48:13;100846.81;;;14.24;100.00
53932;BME280;39844;52.496;13.482;2022-09-09T03:50:38;100848.56;;;14.24;100.00
53932;BME280;39844;52.496;13.482;2022-09-09T03:53:04;100844.22;;;14.21;100.00
53932;BME280;39844;52.496;13.482;2022-09-09T03:55:31;100848.66;;;14.21;100.00
53932;BME280;39844;52.496;13.482;2022-09-09T03:57:56;100851.28;;;14.21;100.00
53932;BME280;39844;52.496;13.482;2022-09-09T04:00:21;100842.50;;;14.19;100.00
53932;BME280;39844;52.496;13.482;2022-09-09T04:02:47;100843.41;;;14.18;100.00
53932;BME280;39844;52.496;13.482;2022-09-09T04:05:12;100842.59;;;14.14;100.00
53932;BME280;39844;52.496;13.482;2022-09-09T04:07:38;100841.78;;;14.11;100.00
53932;BME280;39844;52.496;13.482;2022-09-09T04:10:04;100846.22;;;14.07;100.00
53932;BME280;39844;52.496;13.482;2022-09-09T04:12:29;100833.06;;;14.06;100.00
53932;BME280;39844;52.496;13.482;2022-09-09T04:14:54;100838.38;;;14.03;100.00
53932;BME280;39844;52.496;13.482;2022-09-09T04:17:20;100834.91;;;14.01;100.00
53932;BME280;39844;52.496;13.482;2022-09-09T04:19:45;100844.59;;;13.99;100.00
53932;BME280;39844;52.496;13.482;2022-09-09T04:22:11;100834.97;;;13.98;100.00
53932;BME280;39844;52.496;13.482;2022-09-09T04:24:36;100840.22;;;13.98;100.00
53932;BME280;39844;52.496;13.482;2022-09-09T04:27:02;100849.88;;;13.99;100.00
53932;BME280;39844;52.496;13.482;2022-09-09T04:29:27;100849.03;;;13.97;100.00
53932;BME280;39844;52.496;13.482;2022-09-09T04:31:52;100864.88;;;13.97;100.00
53932;BME280;39844;52.496;13.482;2022-09-09T04:34:18;100857.00;;;13.95;100.00
53932;BME280;39844;52.496;13.482;2022-09-09T04:36:43;100859.63;;;13.93;100.00
53932;BME280;39844;52.496;13.482;2022-09-09T04:39:08;100870.19;;;13.93;100.00
53932;BME280;39844;52.496;13.482;2022-09-09T04:41:34;100870.19;;;13.93;100.00
53932;BME280;39844;52.496;13.482;2022-09-09T04:43:59;100861.38;;;13.94;100.00
53932;BME280;39844;52.496;13.482;2022-09-09T04:46:26;100868.34;;;13.99;100.00
53932;BME280;39844;52.496;13.482;2022-09-09T04:48:51;100859.53;;;14.00;100.00
53932;BME280;39844;52.496;13.482;2022-09-09T04:51:17;100866.53;;;14.02;100.00
53932;BME280;39844;52.496;13.482;2022-09-09T04:53:43;100872.69;;;14.03;100.00
53932;BME280;39844;52.496;13.482;2022-09-09T04:56:14;100875.31;;;14.04;100.00
53932;BME280;39844;52.496;13.482;2022-09-09T04:58:40;100874.44;;;14.05;100.00
53932;BME280;39844;52.496;13.482;2022-09-09T05:01:11;100881.38;;;14.09;100.00
53932;BME280;39844;52.496;13.482;2022-09-09T05:03:37;100883.09;;;14.12;100.00
53932;BME280;39844;52.496;13.482;2022-09-09T05:06:11;100888.34;;;14.15;100.00
53932;BME280;39844;52.496;13.482;2022-09-09T05:08:38;100883.91;;;14.17;100.00
53932;BME280;39844;52.496;13.482;2022-09-09T05:11:12;100884.69;;;14.22;100.00
53932;BME280;39844;52.496;13.482;2022-09-09T05:13:38;100885.53;;;14.24;100.00
53932;BME280;39844;52.496;13.482;2022-09-09T05:16:03;100891.63;;;14.29;100.00
53932;BME280;39844;52.496;13.482;2022-09-09T05:18:29;100881.03;;;14.30;100.00
53932;BME280;39844;52.496;13.482;2022-09-09T05:21:00;100882.81;;;14.33;100.00
53932;BME280;39844;52.496;13.482;2022-09-09T05:23:26;100881.00;;;14.36;100.00
53932;BME280;39844;52.496;13.482;2022-09-09T05:25:55;100885.34;;;14.39;100.00
53932;BME280;39844;52.496;13.482;2022-09-09T05:28:22;100876.50;;;14.40;100.00
53932;BME280;39844;52.496;13.482;2022-09-09T05:30:58;100884.34;;;14.44;100.00
53932;BME280;39844;52.496;13.482;2022-09-09T05:33:25;100881.63;;;14.50;100.00
53932;BME280;39844;52.496;13.482;2022-09-09T05:36:05;100878.88;;;14.55;100.00
53932;BME280;39844;52.496;13.482;2022-09-09T05:38:33;100885.00;;;14.59;100.00
53932;BME280;39844;52.496;13.482;2022-09-09T05:40:59;100880.56;;;14.61;100.00
53932;BME280;39844;52.496;13.482;2022-09-09T05:43:25;100875.22;;;14.62;100.00
53932;BME280;39844;52.496;13.482;2022-09-09T05:46:08;100873.38;;;14.67;100.00
53932;BME280;39844;52.496;13.482;2022-09-09T05:48:36;100865.41;;;14.70;100.00
53932;BME280;39844;52.496;13.482;2022-09-09T05:51:03;100881.19;;;14.73;100.00
53932;BME280;39844;52.496;13.482;2022-09-09T05:53:29;100885.56;;;14.76;100.00
53932;BME280;39844;52.496;13.482;2022-09-09T05:58:29;100892.44;;;14.84;100.00
53932;BME280;39844;52.496;13.482;2022-09-09T06:03:35;100898.47;;;14.92;100.00
53932;BME280;39844;52.496;13.482;2022-09-09T06:06:03;100898.38;;;14.95;100.00
53932;BME280;39844;52.496;13.482;2022-09-09T06:08:36;100897.50;;;14.96;100.00
53932;BME280;39844;52.496;13.482;2022-09-09T06:11:07;100907.19;;;14.97;100.00
53932;BME280;39844;52.496;13.482;2022-09-09T06:13:33;100917.75;;;14.97;100.00
53932;BME280;39844;52.496;13.482;2022-09-09T06:15:58;100910.66;;;14.99;100.00
53932;BME280;39844;52.496;13.482;2022-09-09T06:18:25;100911.47;;;15.03;100.00
53932;BME280;39844;52.496;13.482;2022-09-09T06:23:20;100912.22;;;15.09;100.00
53932;BME280;39844;52.496;13.482;2022-09-09T06:25:45;100908.63;;;15.13;100.00
53932;BME280;39844;52.496;13.482;2022-09-09T06:28:11;100906.81;;;15.15;100.00
53932;BME280;39844;52.496;13.482;2022-09-09T06:30:36;100905.03;;;15.17;100.00
53932;BME280;39844;52.496;13.482;2022-09-09T06:33:02;100911.16;;;15.18;100.00
53932;BME280;39844;52.496;13.482;2022-09-09T06:35:27;100913.75;;;15.23;100.00
53932;BME280;39844;52.496;13.482;2022-09-09T06:37:53;100918.94;;;15.26;100.00
53932;BME280;39844;52.496;13.482;2022-09-09T06:40:19;100918.88;;;15.30;100.00
53932;BME280;39844;52.496;13.482;2022-09-09T06:42:44;100912.56;;;15.37;100.00
53932;BME280;39844;52.496;13.482;2022-09-09T06:45:10;100920.38;;;15.42;100.00
53932;BME280;39844;52.496;13.482;2022-09-09T06:47:35;100919.44;;;15.47;100.00
53932;BME280;39844;52.496;13.482;2022-09-09T06:50:00;100920.16;;;15.54;100.00
53932;BME280;39844;52.496;13.482;2022-09-09T06:52:26;100919.09;;;15.62;100.00
53932;BME280;39844;52.496;13.482;2022-09-09T06:54:51;100914.53;;;15.69;100.00
53932;BME280;39844;52.496;13.482;2022-09-09T06:57:16;100922.25;;;15.79;100.00
53932;BME280;39844;52.496;13.482;2022-09-09T06:59:41;100904.47;;;15.86;100.00
53932;BME280;39844;52.496;13.482;2022-09-09T07:02:07;100917.59;;;15.89;99.58
53932;BME280;39844;52.496;13.482;2022-09-09T07:04:33;100910.53;;;15.91;98.74
53932;BME280;39844;52.496;13.482;2022-09-09T07:06:58;100912.13;;;15.98;98.59
53932;BME280;39844;52.496;13.482;2022-09-09T07:09:24;100911.19;;;16.01;97.79
53932;BME280;39844;52.496;13.482;2022-09-09T07:11:51;100913.72;;;16.05;98.15
53932;BME280;39844;52.496;13.482;2022-09-09T07:14:19;100910.06;;;16.11;98.05
53932;BME280;39844;52.496;13.482;2022-09-09T07:16:46;100911.69;;;16.16;98.56
53932;BME280;39844;52.496;13.482;2022-09-09T07:19:11;100921.19;;;16.25;98.90
53932;BME280;39844;52.496;13.482;2022-09-09T07:21:37;100918.44;;;16.29;97.84
53932;BME280;39844;52.496;13.482;2022-09-09T07:24:04;100914.88;;;16.30;96.62
53932;BME280;39844;52.496;13.482;2022-09-09T07:26:32;100911.22;;;16.36;96.45
53932;BME280;39844;52.496;13.482;2022-09-09T07:28:58;100922.63;;;16.39;96.40
53932;BME280;39844;52.496;13.482;2022-09-09T07:31:27;100919.88;;;16.42;95.41
53932;BME280;39844;52.496;13.482;2022-09-09T07:33:53;100921.63;;;16.43;94.40
53932;BME280;39844;52.496;13.482;2022-09-09T07:36:20;100922.38;;;16.49;94.28
53932;BME280;39844;52.496;13.482;2022-09-09T07:38:52;100920.50;;;16.54;93.78
53932;BME280;39844;52.496;13.482;2022-09-09T07:41:24;100918.53;;;16.62;93.81
53932;BME280;39844;52.496;13.482;2022-09-09T07:43:50;100922.78;;;16.69;94.24
53932;BME280;39844;52.496;13.482;2022-09-09T07:46:18;100919.97;;;16.75;93.48
53932;BME280;39844;52.496;13.482;2022-09-09T07:48:55;100917.13;;;16.81;93.02
53932;BME280;39844;52.496;13.482;2022-09-09T07:51:26;100920.53;;;16.86;91.84
53932;BME280;39844;52.496;13.482;2022-09-09T07:53:54;100923.88;;;16.94;91.60
53932;BME280;39844;52.496;13.482;2022-09-09T07:56:20;100917.41;;;17.04;90.82
53932;BME280;39844;52.496;13.482;2022-09-09T07:58:49;100920.78;;;17.11;89.34
53932;BME280;39844;52.496;13.482;2022-09-09T08:01:17;100923.13;;;17.21;89.08
53932;BME280;39844;52.496;13.482;2022-09-09T08:03:44;100930.00;;;17.28;88.29
53932;BME280;39844;52.496;13.482;2022-09-09T08:06:10;100927.22;;;17.33;88.11
53932;BME280;39844;52.496;13.482;2022-09-09T08:08:37;100932.25;;;17.42;88.85
53932;BME280;39844;52.496;13.482;2022-09-09T08:11:08;100925.03;;;17.47;88.73
53932;BME280;39844;52.496;13.482;2022-09-09T08:13:38;100929.38;;;17.49;88.20
53932;BME280;39844;52.496;13.482;2022-09-09T08:16:12;100932.00;;;17.51;87.20
53932;BME280;39844;52.496;13.482;2022-09-09T08:18:38;100938.09;;;17.54;87.94
53932;BME280;39844;52.496;13.482;2022-09-09T08:21:11;100936.19;;;17.59;87.48
53932;BME280;39844;52.496;13.482;2022-09-09T08:23:38;100943.25;;;17.60;86.52
53932;BME280;39844;52.496;13.482;2022-09-09T08:26:06;100940.53;;;17.62;86.29
53932;BME280;39844;52.496;13.482;2022-09-09T08:28:32;100946.63;;;17.65;86.39
53932;BME280;39844;52.496;13.482;2022-09-09T08:31:05;100939.34;;;17.72;85.27
53932;BME280;39844;52.496;13.482;2022-09-09T08:33:32;100940.88;;;17.81;85.56
53932;BME280;39844;52.496;13.482;2022-09-09T08:35:58;100933.53;;;17.89;85.41
53932;BME280;39844;52.496;13.482;2022-09-09T08:38:23;100933.16;;;18.01;86.20
53932;BME280;39844;52.496;13.482;2022-09-09T08:40:50;100940.81;;;18.11;85.64
53932;BME280;39844;52.496;13.482;2022-09-09T08:43:21;100938.06;;;18.14;84.60
53932;BME280;39844;52.496;13.482;2022-09-09T08:45:55;100941.59;;;18.15;84.44
53932;BME280;39844;52.496;13.482;2022-09-09T08:48:47;100944.09;;;18.19;85.03
53932;BME280;39844;52.496;13.482;2022-09-09T08:51:18;100936.69;;;18.29;85.31
53932;BME280;39844;52.496;13.482;2022-09-09T08:53:48;100941.72;;;18.38;86.04
53932;BME280;39844;52.496;13.482;2022-09-09T08:56:18;100935.22;;;18.48;86.22
53932;BME280;39844;52.496;13.482;2022-09-09T08:58:53;100935.06;;;18.53;84.09
53932;BME280;39844;52.496;13.482;2022-09-09T09:06:35;100938.72;;;18.75;82.92
53932;BME280;39844;52.496;13.482;2022-09-09T09:11:37;100951.91;;;19.04;82.73
53932;BME280;39844;52.496;13.482;2022-09-09T09:14:09;100949.69;;;19.17;81.69
53932;BME280;39844;52.496;13.482;2022-09-09T09:19:23;100940.72;;;19.44;77.62
53932;BME280;39844;52.496;13.482;2022-09-09T09:24:39;100944.13;;;19.71;78.38
53932;BME280;39844;52.496;13.482;2022-09-09T09:27:16;100942.81;;;19.82;77.52
53932;BME280;39844;52.496;13.482;2022-09-09T09:29:44;100939.88;;;19.90;76.34
53932;BME280;39844;52.496;13.482;2022-09-09T09:32:17;100938.88;;;19.92;76.22
53932;BME280;39844;52.496;13.482;2022-09-09T09:34:49;100937.25;;;19.88;75.49
53932;BME280;39844;52.496;13.482;2022-09-09T09:37:20;100946.97;;;19.89;75.80
53932;BME280;39844;52.496;13.482;2022-09-09T09:39:48;100939.56;;;19.74;73.97
53932;BME280;39844;52.496;13.482;2022-09-09T09:42:17;100927.53;;;19.64;73.43
53932;BME280;39844;52.496;13.482;2022-09-09T09:44:43;100931.09;;;19.63;75.17
53932;BME280;39844;52.496;13.482;2022-09-09T09:47:12;100929.50;;;19.59;74.02
53932;BME280;39844;52.496;13.482;2022-09-09T09:49:39;100933.97;;;19.59;73.71
53932;BME280;39844;52.496;13.482;2022-09-09T09:52:06;100940.16;;;19.59;74.42
53932;BME280;39844;52.496;13.482;2022-09-09T09:54:41;100935.72;;;19.60;74.69
53932;BME280;39844;52.496;13.482;2022-09-09T09:57:17;100939.25;;;19.60;74.35
53932;BME280;39844;52.496;13.482;2022-09-09T09:59:43;100943.44;;;19.66;74.79
53932;BME280;39844;52.496;13.482;2022-09-09T10:04:42;100939.06;;;19.65;73.28
53932;BME280;39844;52.496;13.482;2022-09-09T10:07:25;100938.19;;;19.64;72.30
53932;BME280;39844;52.496;13.482;2022-09-09T10:09:56;100938.78;;;19.72;72.76
53932;BME280;39844;52.496;13.482;2022-09-09T10:12:43;100939.47;;;19.77;71.97
53932;BME280;39844;52.496;13.482;2022-09-09T10:15:39;100936.44;;;19.86;72.61
53932;BME280;39844;52.496;13.482;2022-09-09T10:18:36;100941.28;;;19.98;73.67
53932;BME280;39844;52.496;13.482;2022-09-09T10:21:16;100945.47;;;20.05;72.97
53932;BME280;39844;52.496;13.482;2022-09-09T10:24:25;100945.09;;;20.14;72.30
53932;BME280;39844;52.496;13.482;2022-09-09T10:37:41;100944.63;;;20.27;68.31
53932;BME280;39844;52.496;13.482;2022-09-09T10:42:56;100944.56;;;20.50;68.34
53932;BME280;39844;52.496;13.482;2022-09-09T10:48:40;100943.44;;;20.77;68.66
53932;BME280;39844;52.496;13.482;2022-09-09T10:51:20;100943.56;;;20.94;70.48
53932;BME280;39844;52.496;13.482;2022-09-09T10:57:02;100946.78;;;21.02;68.01
53932;BME280;39844;52.496;13.482;2022-09-09T10:59:33;100943.31;;;21.20;69.46
53932;BME280;39844;52.496;13.482;2022-09-09T11:02:40;100935.63;;;21.72;70.27
53932;BME280;39844;52.496;13.482;2022-09-09T11:05:16;100949.59;;;22.34;67.42
53932;BME280;39844;52.496;13.482;2022-09-09T11:08:05;100940.41;;;22.93;64.61
53932;BME280;39844;52.496;13.482;2022-09-09T11:13:10;100933.94;;;24.12;59.74
53932;BME280;39844;52.496;13.482;2022-09-09T11:15:43;100926.50;;;24.33;59.30
53932;BME280;39844;52.496;13.482;2022-09-09T11:18:19;100920.13;;;24.65;58.39
53932;BME280;39844;52.496;13.482;2022-09-09T11:20:49;100933.97;;;25.03;55.43
53932;BME280;39844;52.496;13.482;2022-09-09T11:23:42;100927.44;;;25.51;54.14
53932;BME280;39844;52.496;13.482;2022-09-09T11:26:16;100921.28;;;25.63;53.32
53932;BME280;39844;52.496;13.482;2022-09-09T11:32:16;100929.97;;;26.23;51.00
53932;BME280;39844;52.496;13.482;2022-09-09T11:37:41;100921.88;;;26.50;48.49
53932;BME280;39844;52.496;13.482;2022-09-09T11:40:26;100923.63;;;26.77;48.97
53932;BME280;39844;52.496;13.482;2022-09-09T11:43:12;100918.41;;;27.26;50.12
53932;BME280;39844;52.496;13.482;2022-09-09T11:45:40;100910.81;;;27.45;47.20
53932;BME280;39844;52.496;13.482;2022-09-09T11:48:25;100910.34;;;27.51;47.73
53932;BME280;39844;52.496;13.482;2022-09-09T11:53:53;100908.25;;;26.79;49.13
53932;BME280;39844;52.496;13.482;2022-09-09T11:56:28;100908.31;;;26.39;49.22
53932;BME280;39844;52.496;13.482;2022-09-09T11:59:16;100899.00;;;25.75;49.65
53932;BME280;39844;52.496;13.482;2022-09-09T12:01:45;100897.25;;;25.32;51.48
53932;BME280;39844;52.496;13.482;2022-09-09T12:04:38;100898.22;;;25.17;53.72
53932;BME280;39844;52.496;13.482;2022-09-09T12:07:21;100898.91;;;25.48;54.16
53932;BME280;39844;52.496;13.482;2022-09-09T12:09:57;100890.16;;;25.73;52.56
53932;BME280;39844;52.496;13.482;2022-09-09T12:12:29;100887.09;;;25.51;53.14
53932;BME280;39844;52.496;13.482;2022-09-09T12:17:26;100875.47;;;26.19;52.25
53932;BME280;39844;52.496;13.482;2022-09-09T12:20:12;100878.69;;;26.78;52.49
53932;BME280;39844;52.496;13.482;2022-09-09T12:22:50;100874.41;;;27.13;49.05
53932;BME280;39844;52.496;13.482;2022-09-09T12:28:09;100868.47;;;27.33;46.01
53932;BME280;39844;52.496;13.482;2022-09-09T12:30:59;100868.38;;;27.22;46.01
53932;BME280;39844;52.496;13.482;2022-09-09T12:33:35;100865.16;;;27.05;46.79
53932;BME280;39844;52.496;13.482;2022-09-09T12:36:01;100870.53;;;26.79;46.91
53932;BME280;39844;52.496;13.482;2022-09-09T12:38:40;100872.78;;;26.46;48.32
53932;BME280;39844;52.496;13.482;2022-09-09T12:41:18;100868.38;;;26.18;50.12
53932;BME280;39844;52.496;13.482;2022-09-09T12:43:44;100863.91;;;25.91;49.98
53932;BME280;39844;52.496;13.482;2022-09-09T12:46:26;100857.13;;;25.71;50.32
53932;BME280;39844;52.496;13.482;2022-09-09T12:48:55;100858.84;;;25.58;50.73
53932;BME280;39844;52.496;13.482;2022-09-09T12:53:50;100856.56;;;25.24;52.20
53932;BME280;39844;52.496;13.482;2022-09-09T12:56:24;100852.50;;;25.02;52.23
53932;BME280;39844;52.496;13.482;2022-09-09T12:58:52;100850.88;;;24.86;53.15
53932;BME280;39844;52.496;13.482;2022-09-09T13:01:22;100860.47;;;24.74;53.93
53932;BME280;39844;52.496;13.482;2022-09-09T13:03:48;100858.25;;;24.67;55.02
53932;BME280;39844;52.496;13.482;2022-09-09T13:06:20;100868.56;;;24.59;53.79
53932;BME280;39844;52.496;13.482;2022-09-09T13:08:47;100873.34;;;24.53;54.46
53932;BME280;39844;52.496;13.482;2022-09-09T13:11:17;100870.94;;;24.49;54.47
53932;BME280;39844;52.496;13.482;2022-09-09T13:13:51;100881.88;;;24.46;55.24
53932;BME280;39844;52.496;13.482;2022-09-09T13:16:35;100875.91;;;24.41;55.58
53932;BME280;39844;52.496;13.482;2022-09-09T13:19:07;100868.81;;;24.40;55.06
53932;BME280;39844;52.496;13.482;2022-09-09T13:21:34;100866.41;;;24.35;53.52
53932;BME280;39844;52.496;13.482;2022-09-09T13:24:01;100857.31;;;24.38;54.38
53932;BME280;39844;52.496;13.482;2022-09-09T13:26:30;100855.56;;;24.37;54.76
53932;BME280;39844;52.496;13.482;2022-09-09T13:29:08;100850.22;;;24.37;53.93
53932;BME280;39844;52.496;13.482;2022-09-09T13:31:39;100852.53;;;24.43;55.01
53932;BME280;39844;52.496;13.482;2022-09-09T13:34:26;100843.53;;;24.44;53.63
53932;BME280;39844;52.496;13.482;2022-09-09T13:36:59;100844.66;;;24.40;52.22
53932;BME280;39844;52.496;13.482;2022-09-09T13:39:27;100836.53;;;24.26;51.50
53932;BME280;39844;52.496;13.482;2022-09-09T13:41:52;100843.06;;;24.22;52.83
53932;BME280;39844;52.496;13.482;2022-09-09T13:47:16;100837.34;;;23.97;52.84
53932;BME280;39844;52.496;13.482;2022-09-09T13:49:44;100840.47;;;23.89;52.66
53932;BME280;39844;52.496;13.482;2022-09-09T13:52:16;100833.06;;;24.10;53.71
53932;BME280;39844;52.496;13.482;2022-09-09T13:54:51;100846.06;;;24.61;53.04
53932;BME280;39844;52.496;13.482;2022-09-09T13:57:22;100839.59;;;24.79;53.13
53932;BME280;39844;52.496;13.482;2022-09-09T13:59:50;100836.31;;;24.74;52.03
53932;BME280;39844;52.496;13.482;2022-09-09T14:02:16;100842.44;;;24.62;51.61
53932;BME280;39844;52.496;13.482;2022-09-09T14:04:42;100846.63;;;24.52;52.54
53932;BME280;39844;52.496;13.482;2022-09-09T14:07:12;100848.28;;;24.39;54.28
53932;BME280;39844;52.496;13.482;2022-09-09T14:09:39;100852.66;;;24.26;55.07
53932;BME280;39844;52.496;13.482;2022-09-09T14:12:08;100854.50;;;24.10;55.74
53932;BME280;39844;52.496;13.482;2022-09-09T14:14:34;100847.75;;;23.87;54.47
53932;BME280;39844;52.496;13.482;2022-09-09T14:17:00;100847.75;;;23.71;56.08
53932;BME280;39844;52.496;13.482;2022-09-09T14:19:26;100845.75;;;23.59;55.85
53932;BME280;39844;52.496;13.482;2022-09-09T14:21:51;100849.38;;;23.58;55.72
53932;BME280;39844;52.496;13.482;2022-09-09T14:24:17;100853.81;;;23.59;56.96
53932;BME280;39844;52.496;13.482;2022-09-09T14:26:45;100847.41;;;23.62;59.22
53932;BME280;39844;52.496;13.482;2022-09-09T14:29:13;100845.31;;;23.51;57.07
53932;BME280;39844;52.496;13.482;2022-09-09T14:31:41;100849.25;;;23.44;56.93
53932;BME280;39844;52.496;13.482;2022-09-09T14:34:16;100850.13;;;23.45;57.47
53932;BME280;39844;52.496;13.482;2022-09-09T14:36:41;100841.66;;;23.52;57.46
53932;BME280;39844;52.496;13.482;2022-09-09T14:39:09;100840.63;;;23.55;57.65
53932;BME280;39844;52.496;13.482;2022-09-09T14:41:34;100834.44;;;23.54;57.42